Etusivu
METAR-TAF:

METAR-TAF

Lentoasemat :

Matsumoto, Japani

Leveyspiiri: 36-10N, Pituuspiiri: 137-56E, korkeus merenpinnasta: 668 m

Tämänhetkinen sää

Tämä raportti tehtiin 7 tuntia ja 18 minuuttia sitten, kello 07.00 UTC
Tuuli 12 kn pohjoisesta
Lämpötila 21°C
Kosteus 64%
Ilmanpaine 1003 hPa
Näkyvyys 10 km tai enemmän
Muutamia pilviä 1500 ft:n korkeudessa
Hajanaisia pilviä 4000 ft:n korkeudessa
Hajonneita pilviä 6000 ft:n korkeudessa

METAR: RJAF 250700Z 35012KT 9999 FEW015 SCT040 BKN060 21/14 Q1003

Aika: 23:18 (14:18 UTC)


TAF: puuttuu

Säähavainnot ja -ennusteet yli 4000 lentoasemalta (METAR- ja TAF-raportit).

Käytössä olevat sääasemat on merkitty karttaan keltaisilla ja punaisilla pisteillä.

Aseta hiiri pisteen päälle nähdäksesi sääaseman nimen.

Klikkaa sitten nähdäksesi säähavainnot ja -ennusteet.

Kartan vaihtaminen: klikkaa mustalla rastilla varustettuja vihreitä pisteitä, niin voit zoomata sisään; viivalla varustettua vihreää pistettä, niin voit zoomata ulos tai vihreitä nuolia, niin pääset viereisille kartoille.


METAR-TAF: